Flight Track Log - Related Links

Times and Time Zones

All times are in EDT time to prevent confusion due to time zone crossing. See the AAL1862 flight status page for this flight to view local times or setup timezone preferences in your user account.

Time Position Orientation Groundspeed Altitude Reporting Facility
EDT Latitude Longitude Course Direction KTS MPH feet Rate Location/Type
Tue 07:34:47 AM 32.9167 -97.0333 357° North 152 175 1,600  Level Dallas / Fort Worth TRACON
Tue 07:35:29 AM 32.9500 -97.0333 360° North 206 237 3,100 2,670 Climbing Dallas / Fort Worth TRACON
Tue 07:37:00 AM 32.8388 -96.8023 10° North  Level FlightAware Approximate
Tue 07:37:58 AM 33.1042 -96.9894 13° North 257 296 10,100  Level Fort Worth Center
Tue 07:38:00 AM 32.9531 -96.8000 North  Level FlightAware Approximate
Tue 07:38:58 AM 33.1936 -96.9467 22° Northeast 292 336 11,900  Level Fort Worth Center
Tue 07:39:00 AM 33.0677 -96.8001 357° North  Level FlightAware Approximate
Tue 07:39:58 AM 33.2728 -96.9067 23° Northeast 325 374 15,000  Level Fort Worth Center
Tue 07:40:00 AM 33.1820 -96.8082 357° North  Level FlightAware Approximate
Tue 07:40:58 AM 33.3644 -96.8639 21° North 349 402 17,900  Level Fort Worth Center
Tue 07:41:58 AM 33.4644 -96.7933 30° Northeast 361 415 20,200 2,200 Climbing Fort Worth Center
Tue 07:42:58 AM 33.5411 -96.7231 37° Northeast 386 444 22,300 2,200 Climbing Fort Worth Center
Tue 07:43:58 AM 33.6431 -96.6375 35° Northeast 399 459 24,600 2,000 Climbing Fort Worth Center
Tue 07:44:58 AM 33.7383 -96.5567 35° Northeast 410 472 26,300 1,750 Climbing Fort Worth Center
Tue 07:45:58 AM 33.8339 -96.4758 35° Northeast 415 478 28,100 1,750 Climbing Fort Worth Center
Tue 07:46:58 AM 33.9356 -96.3919 34° Northeast 425 489 29,800 1,700 Climbing Fort Worth Center
Tue 07:47:58 AM 34.0350 -96.3058 36° Northeast 431 496 31,500 1,500 Climbing Fort Worth Center
Tue 07:48:58 AM 34.1344 -96.2217 35° Northeast 431 496 32,800 1,350 Climbing Fort Worth Center
Tue 07:49:58 AM 34.2378 -96.1347 35° Northeast 438 504 34,200 1,100 Climbing Fort Worth Center
Tue 07:50:58 AM 34.3369 -96.0478 36° Northeast 443 510 35,000 400 Climbing Fort Worth Center
Tue 07:51:58 AM 34.4361 -95.9606 36° Northeast 448 516 35,000  Level Fort Worth Center
Tue 07:52:58 AM 34.5417 -95.8731 34° Northeast 448 516 35,000  Level Fort Worth Center
Tue 07:53:58 AM 34.6406 -95.7856 36° Northeast 448 516 35,000  Level Fort Worth Center
Tue 07:54:58 AM 34.7417 -95.6978 35° Northeast 448 516 35,000  Level Fort Worth Center
Tue 07:55:58 AM 34.8447 -95.6097 35° Northeast 448 516 35,000  Level Fort Worth Center
Tue 07:56:58 AM 34.9500 -95.5239 34° Northeast 448 516 35,000  Level Fort Worth Center
Tue 07:57:58 AM 35.0508 -95.4353 36° Northeast 441 507 35,000  Level Fort Worth Center
Tue 07:59:14 AM 35.1644 -95.3378 35° Northeast 452 520 35,000  Level Memphis Center
Tue 08:00:14 AM 35.2639 -95.2497 36° Northeast 446 513 35,000  Level Memphis Center
Tue 08:01:14 AM 35.3611 -95.1611 37° Northeast 441 507 35,000  Level Memphis Center
Tue 08:02:14 AM 35.4606 -95.0725 36° Northeast 441 507 35,000  Level Memphis Center
Tue 08:03:14 AM 35.5619 -94.9864 35° Northeast 441 507 35,000  Level Memphis Center
Tue 08:04:14 AM 35.6589 -94.8975 37° Northeast 441 507 35,000  Level Memphis Center
Tue 08:05:14 AM 35.7561 -94.8056 37° Northeast 441 507 35,000  Level Memphis Center
Tue 08:06:14 AM 35.8531 -94.7186 36° Northeast 441 507 35,000  Level Memphis Center
Tue 08:07:14 AM 35.9519 -94.6289 36° Northeast 441 507 35,000  Level Memphis Center
Tue 08:08:14 AM 36.0508 -94.5417 35° Northeast 441 507 35,000  Level Memphis Center
Tue 08:09:14 AM 36.1478 -94.4514 37° Northeast 441 507 35,000  Level Memphis Center
Tue 08:09:46 AM 36.2089 -94.3953 37° Northeast 438 504 35,000  Level Kansas City Center
Tue 08:10:48 AM 36.3075 -94.3061 36° Northeast 440 506 35,000  Level Kansas City Center
Tue 08:11:49 AM 36.4069 -94.2161 36° Northeast 441 507 35,000  Level Kansas City Center
Tue 08:12:50 AM 36.5031 -94.1272 37° Northeast 436 502 35,000  Level Kansas City Center
Tue 08:13:51 AM 36.5997 -94.0381 37° Northeast 433 498 35,000  Level Kansas City Center
Tue 08:14:52 AM 36.6983 -93.9478 36° Northeast 437 503 35,000  Level Kansas City Center
Tue 08:15:53 AM 36.7942 -93.8578 37° Northeast 434 499 35,000  Level Kansas City Center
Tue 08:16:54 AM 36.9064 -93.7536 37° Northeast 431 496 35,000  Level Kansas City Center
Tue 08:17:56 AM 36.9886 -93.6439 47° Northeast 432 497 35,000  Level Kansas City Center
Tue 08:18:57 AM 37.0661 -93.5267 50° Northeast 434 499 35,000  Level Kansas City Center
Tue 08:19:58 AM 37.1497 -93.4167 46° Northeast 434 499 35,000  Level Kansas City Center
Tue 08:20:59 AM 37.2308 -93.3056 47° Northeast 431 496 35,000  Level Kansas City Center
Tue 08:22:01 AM 37.3131 -93.1939 47° Northeast 433 498 35,000 -488 Level Kansas City Center
Tue 08:23:02 AM 37.3939 -93.0786 49° Northeast 437 503 34,000 -984 Descending Kansas City Center
Tue 08:24:03 AM 37.4747 -92.9647 48° Northeast 436 502 33,000 -984 Descending Kansas City Center
Tue 08:25:04 AM 37.5731 -92.8758 36° Northeast 444 511 32,000 -976 Descending Kansas City Center
Tue 08:26:06 AM 37.6883 -92.8128 23° Northeast 448 516 31,000 -1,024 Descending Kansas City Center
Tue 08:27:07 AM 37.8047 -92.7378 27° Northeast 445 512 29,900 -1,033 Descending Kansas City Center
Tue 08:28:08 AM 37.9111 -92.6764 24° Northeast 427 491 28,900 -984 Descending Kansas City Center
Tue 08:29:09 AM 38.0153 -92.6142 25° Northeast 416 479 27,900 -984 Descending Kansas City Center
Tue 08:30:10 AM 38.1175 -92.5450 28° Northeast 416 479 26,900 -976 Descending Kansas City Center
Tue 08:31:12 AM 38.2178 -92.4858 25° Northeast 406 467 25,900 -976 Descending Kansas City Center
Tue 08:32:13 AM 38.3156 -92.4217 27° Northeast 394 453 24,900 -885 Descending Kansas City Center
Tue 08:33:14 AM 38.4314 -92.3517 25° Northeast 385 443 24,100 -390 Descending Kansas City Center
Tue 08:34:16 AM 38.4894 -92.2467 55° Northeast 382 440 24,100 -49 Level Kansas City Center
Tue 08:35:17 AM 38.5172 -92.1161 75° East 379 436 24,000  Descending Kansas City Center
Tue 08:36:18 AM 38.5428 -91.9828 76° East 382 440 24,100 -295 Climbing Kansas City Center
Tue 08:37:19 AM 38.5683 -91.8517 76° East 379 436 23,400 -1,220 Descending Kansas City Center
Tue 08:38:21 AM 38.5942 -91.7189 76° East 383 441 21,600 -1,854 Descending Kansas City Center
Tue 08:39:22 AM 38.6192 -91.5897 76° East 376 433 19,600 -1,770 Descending Kansas City Center
Tue 08:40:23 AM 38.6439 -91.4625 76° East 370 426 18,000 -1,463 Descending Kansas City Center
Tue 08:41:25 AM 38.6650 -91.3514 76° East 360 414 16,600 -1,463 Descending Kansas City Center
Tue 08:42:26 AM 38.6922 -91.2106 76° East 344 396 15,000 -1,377 Descending Kansas City Center
Tue 08:43:27 AM 38.6942 -91.0889 89° East 342 394 13,800 -1,463 Descending Kansas City Center
Tue 08:44:29 AM 38.6936 -90.9719 90° East 334 384 12,000 -1,415 Descending Kansas City Center
Tue 08:45:30 AM 38.6989 -90.8667 86° East 307 353 10,900 -1,377 Descending Kansas City Center
Tue 08:46:31 AM 38.7036 -90.7686 86° East 282 325 9,200 -1,415 Descending Kansas City Center
Tue 08:47:33 AM 38.7078 -90.6708 87° East 277 319 8,000 -585 Descending Kansas City Center
Tue 08:48:34 AM 38.7122 -90.5756 87° East 271 312 8,000  Level Kansas City Center
Tue 08:49:35 AM 38.7033 -90.4906 98° East 248 285 8,000  Level Kansas City Center
Tue 08:50:37 AM 38.6600 -90.4183 128° Southeast 220 253 8,000  Level Kansas City Center
Tue 08:51:38 AM 38.6239 -90.3583 128° Southeast 219 252 8,000  Level Kansas City Center
Tue 08:52:40 AM 38.5864 -90.2981 129° Southeast 216 249 8,000 -488 Level Kansas City Center
Tue 08:53:41 AM 38.5517 -90.2361 126° Southeast 215 247 7,000 -1,131 Descending Kansas City Center
Tue 08:54:42 AM 38.5181 -90.1794 127° Southeast 212 244 5,700 -1,366 Descending Kansas City Center
Tue 08:55:44 AM 38.5431 -90.1331 55° Northeast 207 238 4,200 -1,452 Descending Kansas City Center

Login

Don't have an account? Register now (free) for customized features, flight alerts, and more!